sensor_id;sensor_type;location;lat;lon;timestamp;P1;durP1;ratioP1;P2;durP2;ratioP2
60675;SDS011;46716;38.014;-7.874;2022-12-07T00:01:14;10.48;;;4.82;;
60675;SDS011;46716;38.014;-7.874;2022-12-07T00:03:20;11.20;;;4.43;;
60675;SDS011;46716;38.014;-7.874;2022-12-07T00:05:21;10.35;;;4.10;;
60675;SDS011;46716;38.014;-7.874;2022-12-07T00:07:22;10.30;;;4.25;;
60675;SDS011;46716;38.014;-7.874;2022-12-07T00:09:23;10.00;;;4.47;;
60675;SDS011;46716;38.014;-7.874;2022-12-07T00:11:24;9.43;;;4.20;;
60675;SDS011;46716;38.014;-7.874;2022-12-07T00:13:25;13.43;;;4.38;;
60675;SDS011;46716;38.014;-7.874;2022-12-07T00:15:27;9.73;;;4.22;;
60675;SDS011;46716;38.014;-7.874;2022-12-07T00:17:28;12.20;;;4.15;;
60675;SDS011;46716;38.014;-7.874;2022-12-07T00:19:29;10.30;;;4.15;;
60675;SDS011;46716;38.014;-7.874;2022-12-07T00:21:31;9.73;;;4.13;;
60675;SDS011;46716;38.014;-7.874;2022-12-07T00:23:34;12.13;;;4.20;;
60675;SDS011;46716;38.014;-7.874;2022-12-07T00:25:35;13.82;;;4.10;;
60675;SDS011;46716;38.014;-7.874;2022-12-07T00:27:35;10.57;;;4.25;;
60675;SDS011;46716;38.014;-7.874;2022-12-07T00:29:36;9.48;;;3.63;;
60675;SDS011;46716;38.014;-7.874;2022-12-07T00:31:37;12.00;;;4.63;;
60675;SDS011;46716;38.014;-7.874;2022-12-07T00:33:39;9.55;;;3.75;;
60675;SDS011;46716;38.014;-7.874;2022-12-07T00:35:40;14.82;;;4.72;;
60675;SDS011;46716;38.014;-7.874;2022-12-07T00:37:41;12.82;;;3.63;;
60675;SDS011;46716;38.014;-7.874;2022-12-07T00:39:42;8.60;;;3.88;;
60675;SDS011;46716;38.014;-7.874;2022-12-07T00:41:43;12.82;;;4.30;;
60675;SDS011;46716;38.014;-7.874;2022-12-07T00:43:45;10.63;;;3.58;;
60675;SDS011;46716;38.014;-7.874;2022-12-07T00:47:48;13.48;;;4.07;;
60675;SDS011;46716;38.014;-7.874;2022-12-07T00:49:48;9.25;;;3.35;;
60675;SDS011;46716;38.014;-7.874;2022-12-07T00:51:49;11.75;;;4.63;;
60675;SDS011;46716;38.014;-7.874;2022-12-07T00:53:51;10.30;;;3.88;;
60675;SDS011;46716;38.014;-7.874;2022-12-07T00:55:53;14.32;;;4.15;;
60675;SDS011;46716;38.014;-7.874;2022-12-07T00:57:53;13.68;;;4.32;;
60675;SDS011;46716;38.014;-7.874;2022-12-07T00:59:55;11.02;;;4.32;;
60675;SDS011;46716;38.014;-7.874;2022-12-07T01:01:57;11.32;;;3.85;;
60675;SDS011;46716;38.014;-7.874;2022-12-07T01:03:58;13.23;;;4.47;;
60675;SDS011;46716;38.014;-7.874;2022-12-07T01:06:03;11.77;;;4.50;;
60675;SDS011;46716;38.014;-7.874;2022-12-07T01:08:05;12.20;;;3.88;;
60675;SDS011;46716;38.014;-7.874;2022-12-07T01:10:07;11.15;;;4.00;;
60675;SDS011;46716;38.014;-7.874;2022-12-07T01:12:08;12.18;;;3.38;;
60675;SDS011;46716;38.014;-7.874;2022-12-07T01:14:09;11.45;;;4.03;;
60675;SDS011;46716;38.014;-7.874;2022-12-07T01:16:11;10.32;;;3.13;;
60675;SDS011;46716;38.014;-7.874;2022-12-07T01:18:13;13.32;;;4.45;;
60675;SDS011;46716;38.014;-7.874;2022-12-07T01:20:15;28.15;;;4.97;;
60675;SDS011;46716;38.014;-7.874;2022-12-07T01:22:16;13.48;;;4.40;;
60675;SDS011;46716;38.014;-7.874;2022-12-07T01:24:17;12.52;;;3.80;;
60675;SDS011;46716;38.014;-7.874;2022-12-07T01:26:19;8.38;;;3.75;;
60675;SDS011;46716;38.014;-7.874;2022-12-07T01:28:22;11.98;;;4.40;;
60675;SDS011;46716;38.014;-7.874;2022-12-07T01:30:23;10.50;;;4.60;;
60675;SDS011;46716;38.014;-7.874;2022-12-07T01:32:24;10.88;;;4.00;;
60675;SDS011;46716;38.014;-7.874;2022-12-07T01:34:28;8.82;;;4.38;;
60675;SDS011;46716;38.014;-7.874;2022-12-07T01:36:33;13.30;;;4.70;;
60675;SDS011;46716;38.014;-7.874;2022-12-07T01:38:36;11.55;;;3.47;;
60675;SDS011;46716;38.014;-7.874;2022-12-07T01:40:36;8.40;;;3.35;;
60675;SDS011;46716;38.014;-7.874;2022-12-07T01:42:37;11.93;;;3.65;;
60675;SDS011;46716;38.014;-7.874;2022-12-07T01:47:17;14.55;;;4.13;;
60675;SDS011;46716;38.014;-7.874;2022-12-07T01:51:43;9.15;;;3.72;;
60675;SDS011;46716;38.014;-7.874;2022-12-07T01:53:47;8.68;;;3.72;;
60675;SDS011;46716;38.014;-7.874;2022-12-07T01:55:49;10.13;;;4.00;;
60675;SDS011;46716;38.014;-7.874;2022-12-07T01:57:53;9.32;;;3.92;;
60675;SDS011;46716;38.014;-7.874;2022-12-07T02:01:57;11.40;;;3.30;;
60675;SDS011;46716;38.014;-7.874;2022-12-07T02:03:58;9.23;;;4.00;;
60675;SDS011;46716;38.014;-7.874;2022-12-07T02:05:59;8.10;;;3.45;;
60675;SDS011;46716;38.014;-7.874;2022-12-07T02:08:00;9.55;;;3.08;;
60675;SDS011;46716;38.014;-7.874;2022-12-07T02:10:16;10.23;;;4.10;;
60675;SDS011;46716;38.014;-7.874;2022-12-07T02:12:19;11.88;;;4.10;;
60675;SDS011;46716;38.014;-7.874;2022-12-07T02:14:21;10.85;;;4.15;;
60675;SDS011;46716;38.014;-7.874;2022-12-07T02:21:19;9.20;;;3.45;;
60675;SDS011;46716;38.014;-7.874;2022-12-07T02:28:30;8.63;;;3.80;;
60675;SDS011;46716;38.014;-7.874;2022-12-07T02:30:35;8.55;;;3.70;;
60675;SDS011;46716;38.014;-7.874;2022-12-07T02:35:09;11.10;;;3.60;;
60675;SDS011;46716;38.014;-7.874;2022-12-07T02:37:37;9.48;;;3.35;;
60675;SDS011;46716;38.014;-7.874;2022-12-07T02:40:01;9.65;;;3.30;;
60675;SDS011;46716;38.014;-7.874;2022-12-07T02:42:17;10.25;;;4.38;;
60675;SDS011;46716;38.014;-7.874;2022-12-07T02:44:24;12.35;;;4.22;;
60675;SDS011;46716;38.014;-7.874;2022-12-07T02:46:32;10.10;;;4.22;;
60675;SDS011;46716;38.014;-7.874;2022-12-07T02:48:36;9.02;;;4.20;;
60675;SDS011;46716;38.014;-7.874;2022-12-07T02:50:44;12.23;;;3.53;;
60675;SDS011;46716;38.014;-7.874;2022-12-07T02:52:51;8.93;;;3.95;;
60675;SDS011;46716;38.014;-7.874;2022-12-07T02:54:52;9.90;;;3.83;;
60675;SDS011;46716;38.014;-7.874;2022-12-07T02:57:06;9.57;;;4.43;;
60675;SDS011;46716;38.014;-7.874;2022-12-07T03:03:42;9.00;;;3.70;;
60675;SDS011;46716;38.014;-7.874;2022-12-07T03:05:54;7.65;;;3.53;;
60675;SDS011;46716;38.014;-7.874;2022-12-07T03:12:29;10.20;;;3.92;;
60675;SDS011;46716;38.014;-7.874;2022-12-07T03:14:38;12.07;;;3.78;;
60675;SDS011;46716;38.014;-7.874;2022-12-07T03:16:53;9.15;;;3.08;;
60675;SDS011;46716;38.014;-7.874;2022-12-07T03:19:03;10.05;;;3.35;;
60675;SDS011;46716;38.014;-7.874;2022-12-07T03:21:16;16.42;;;4.88;;
60675;SDS011;46716;38.014;-7.874;2022-12-07T03:23:20;9.55;;;4.50;;
60675;SDS011;46716;38.014;-7.874;2022-12-07T03:25:24;9.45;;;4.32;;
60675;SDS011;46716;38.014;-7.874;2022-12-07T03:27:33;12.73;;;4.10;;
60675;SDS011;46716;38.014;-7.874;2022-12-07T03:29:43;13.50;;;4.15;;
60675;SDS011;46716;38.014;-7.874;2022-12-07T03:31:56;9.80;;;3.75;;
60675;SDS011;46716;38.014;-7.874;2022-12-07T03:34:08;11.00;;;4.53;;
60675;SDS011;46716;38.014;-7.874;2022-12-07T03:36:17;9.30;;;3.85;;
60675;SDS011;46716;38.014;-7.874;2022-12-07T03:38:26;7.72;;;3.25;;
60675;SDS011;46716;38.014;-7.874;2022-12-07T03:40:35;9.95;;;3.97;;
60675;SDS011;46716;38.014;-7.874;2022-12-07T03:42:47;10.82;;;3.60;;
60675;SDS011;46716;38.014;-7.874;2022-12-07T03:44:50;8.40;;;4.00;;
60675;SDS011;46716;38.014;-7.874;2022-12-07T03:51:32;9.82;;;3.83;;
60675;SDS011;46716;38.014;-7.874;2022-12-07T03:53:51;8.93;;;3.80;;
60675;SDS011;46716;38.014;-7.874;2022-12-07T03:56:07;10.38;;;3.30;;
60675;SDS011;46716;38.014;-7.874;2022-12-07T03:58:11;7.75;;;3.28;;
60675;SDS011;46716;38.014;-7.874;2022-12-07T04:00:15;14.13;;;3.63;;
60675;SDS011;46716;38.014;-7.874;2022-12-07T04:02:16;9.23;;;3.45;;
60675;SDS011;46716;38.014;-7.874;2022-12-07T04:04:17;8.68;;;3.65;;
60675;SDS011;46716;38.014;-7.874;2022-12-07T04:06:19;6.88;;;3.08;;
60675;SDS011;46716;38.014;-7.874;2022-12-07T04:08:19;9.15;;;3.38;;
60675;SDS011;46716;38.014;-7.874;2022-12-07T04:10:20;9.05;;;3.47;;
60675;SDS011;46716;38.014;-7.874;2022-12-07T04:12:22;6.95;;;2.85;;
60675;SDS011;46716;38.014;-7.874;2022-12-07T04:14:23;9.48;;;3.25;;
60675;SDS011;46716;38.014;-7.874;2022-12-07T04:16:24;9.55;;;3.50;;
60675;SDS011;46716;38.014;-7.874;2022-12-07T04:18:25;7.10;;;3.13;;
60675;SDS011;46716;38.014;-7.874;2022-12-07T04:20:25;8.73;;;3.67;;
60675;SDS011;46716;38.014;-7.874;2022-12-07T04:22:26;10.82;;;3.33;;
60675;SDS011;46716;38.014;-7.874;2022-12-07T04:24:27;9.13;;;3.47;;
60675;SDS011;46716;38.014;-7.874;2022-12-07T04:26:29;7.97;;;3.15;;
60675;SDS011;46716;38.014;-7.874;2022-12-07T04:28:30;8.52;;;3.65;;
60675;SDS011;46716;38.014;-7.874;2022-12-07T04:30:31;7.40;;;3.58;;
60675;SDS011;46716;38.014;-7.874;2022-12-07T04:32:31;7.82;;;3.28;;
60675;SDS011;46716;38.014;-7.874;2022-12-07T04:34:32;7.75;;;3.20;;
60675;SDS011;46716;38.014;-7.874;2022-12-07T04:36:35;7.63;;;3.53;;
60675;SDS011;46716;38.014;-7.874;2022-12-07T04:38:36;7.28;;;3.47;;
60675;SDS011;46716;38.014;-7.874;2022-12-07T04:40:37;9.90;;;3.22;;
60675;SDS011;46716;38.014;-7.874;2022-12-07T04:42:38;7.55;;;3.22;;
60675;SDS011;46716;38.014;-7.874;2022-12-07T04:44:39;11.75;;;3.08;;
60675;SDS011;46716;38.014;-7.874;2022-12-07T04:46:40;8.23;;;3.40;;
60675;SDS011;46716;38.014;-7.874;2022-12-07T04:48:42;7.55;;;3.58;;
60675;SDS011;46716;38.014;-7.874;2022-12-07T04:50:43;12.05;;;2.95;;
60675;SDS011;46716;38.014;-7.874;2022-12-07T04:52:43;9.75;;;3.70;;
60675;SDS011;46716;38.014;-7.874;2022-12-07T04:54:44;9.15;;;3.00;;
60675;SDS011;46716;38.014;-7.874;2022-12-07T04:56:45;8.25;;;3.30;;
60675;SDS011;46716;38.014;-7.874;2022-12-07T04:58:47;9.82;;;3.67;;
60675;SDS011;46716;38.014;-7.874;2022-12-07T05:00:48;11.25;;;4.13;;
60675;SDS011;46716;38.014;-7.874;2022-12-07T05:02:49;9.98;;;3.33;;
60675;SDS011;46716;38.014;-7.874;2022-12-07T05:04:50;10.38;;;3.55;;
60675;SDS011;46716;38.014;-7.874;2022-12-07T05:06:51;10.52;;;3.00;;
60675;SDS011;46716;38.014;-7.874;2022-12-07T05:08:51;9.48;;;3.53;;
60675;SDS011;46716;38.014;-7.874;2022-12-07T05:10:53;13.73;;;4.30;;
60675;SDS011;46716;38.014;-7.874;2022-12-07T05:12:53;12.15;;;3.20;;
60675;SDS011;46716;38.014;-7.874;2022-12-07T05:14:54;10.30;;;3.75;;
60675;SDS011;46716;38.014;-7.874;2022-12-07T05:16:55;11.27;;;3.55;;
60675;SDS011;46716;38.014;-7.874;2022-12-07T05:18:56;8.85;;;3.38;;
60675;SDS011;46716;38.014;-7.874;2022-12-07T05:20:57;9.30;;;4.10;;
60675;SDS011;46716;38.014;-7.874;2022-12-07T05:22:58;9.32;;;3.47;;
60675;SDS011;46716;38.014;-7.874;2022-12-07T05:24:59;10.65;;;3.72;;
60675;SDS011;46716;38.014;-7.874;2022-12-07T05:27:00;10.07;;;3.53;;
60675;SDS011;46716;38.014;-7.874;2022-12-07T05:29:02;10.02;;;3.60;;
60675;SDS011;46716;38.014;-7.874;2022-12-07T05:31:03;11.70;;;3.75;;
60675;SDS011;46716;38.014;-7.874;2022-12-07T05:33:04;11.57;;;3.67;;
60675;SDS011;46716;38.014;-7.874;2022-12-07T05:35:05;8.50;;;3.30;;
60675;SDS011;46716;38.014;-7.874;2022-12-07T05:37:06;9.07;;;3.80;;
60675;SDS011;46716;38.014;-7.874;2022-12-07T05:39:09;6.93;;;3.13;;
60675;SDS011;46716;38.014;-7.874;2022-12-07T05:41:12;10.85;;;3.33;;
60675;SDS011;46716;38.014;-7.874;2022-12-07T05:43:33;12.55;;;3.05;;
60675;SDS011;46716;38.014;-7.874;2022-12-07T05:45:34;7.47;;;3.28;;
60675;SDS011;46716;38.014;-7.874;2022-12-07T05:47:35;11.25;;;3.05;;
60675;SDS011;46716;38.014;-7.874;2022-12-07T05:49:36;5.97;;;2.55;;
60675;SDS011;46716;38.014;-7.874;2022-12-07T05:51:37;8.15;;;2.75;;
60675;SDS011;46716;38.014;-7.874;2022-12-07T05:53:38;11.07;;;3.00;;
60675;SDS011;46716;38.014;-7.874;2022-12-07T05:55:39;15.73;;;3.53;;
60675;SDS011;46716;38.014;-7.874;2022-12-07T05:57:40;6.78;;;3.00;;
60675;SDS011;46716;38.014;-7.874;2022-12-07T06:00:02;8.85;;;2.78;;
60675;SDS011;46716;38.014;-7.874;2022-12-07T06:02:13;9.15;;;3.53;;
60675;SDS011;46716;38.014;-7.874;2022-12-07T06:04:15;8.60;;;2.80;;
60675;SDS011;46716;38.014;-7.874;2022-12-07T06:06:16;16.65;;;3.45;;
60675;SDS011;46716;38.014;-7.874;2022-12-07T06:08:17;15.40;;;3.88;;
60675;SDS011;46716;38.014;-7.874;2022-12-07T06:10:18;30.48;;;4.25;;
60675;SDS011;46716;38.014;-7.874;2022-12-07T06:12:18;16.58;;;2.75;;
60675;SDS011;46716;38.014;-7.874;2022-12-07T06:14:34;14.68;;;4.00;;
60675;SDS011;46716;38.014;-7.874;2022-12-07T06:16:35;14.40;;;4.30;;
60675;SDS011;46716;38.014;-7.874;2022-12-07T06:18:36;7.80;;;3.10;;
60675;SDS011;46716;38.014;-7.874;2022-12-07T06:20:37;10.35;;;3.40;;
60675;SDS011;46716;38.014;-7.874;2022-12-07T06:22:38;7.43;;;3.05;;
60675;SDS011;46716;38.014;-7.874;2022-12-07T06:24:39;11.48;;;3.53;;
60675;SDS011;46716;38.014;-7.874;2022-12-07T06:26:40;11.07;;;3.22;;
60675;SDS011;46716;38.014;-7.874;2022-12-07T06:28:42;8.30;;;3.45;;
60675;SDS011;46716;38.014;-7.874;2022-12-07T06:30:43;8.70;;;3.00;;
60675;SDS011;46716;38.014;-7.874;2022-12-07T06:32:44;8.00;;;2.70;;
60675;SDS011;46716;38.014;-7.874;2022-12-07T06:34:45;7.55;;;2.67;;
60675;SDS011;46716;38.014;-7.874;2022-12-07T06:36:47;8.52;;;2.92;;
60675;SDS011;46716;38.014;-7.874;2022-12-07T06:38:52;9.40;;;3.33;;
60675;SDS011;46716;38.014;-7.874;2022-12-07T06:40:53;8.68;;;3.40;;
60675;SDS011;46716;38.014;-7.874;2022-12-07T06:42:54;10.02;;;3.47;;
60675;SDS011;46716;38.014;-7.874;2022-12-07T06:44:55;16.40;;;3.50;;
60675;SDS011;46716;38.014;-7.874;2022-12-07T06:46:56;11.38;;;3.08;;
60675;SDS011;46716;38.014;-7.874;2022-12-07T06:48:57;12.05;;;3.63;;
60675;SDS011;46716;38.014;-7.874;2022-12-07T06:50:58;18.58;;;3.70;;
60675;SDS011;46716;38.014;-7.874;2022-12-07T06:52:59;8.32;;;3.05;;
60675;SDS011;46716;38.014;-7.874;2022-12-07T06:55:01;9.23;;;3.42;;
60675;SDS011;46716;38.014;-7.874;2022-12-07T06:57:02;11.20;;;3.20;;
60675;SDS011;46716;38.014;-7.874;2022-12-07T06:59:03;12.75;;;3.20;;
60675;SDS011;46716;38.014;-7.874;2022-12-07T07:01:12;8.57;;;3.38;;
60675;SDS011;46716;38.014;-7.874;2022-12-07T07:03:17;9.25;;;3.10;;
60675;SDS011;46716;38.014;-7.874;2022-12-07T07:05:18;9.40;;;3.17;;
60675;SDS011;46716;38.014;-7.874;2022-12-07T07:07:22;14.63;;;4.43;;
60675;SDS011;46716;38.014;-7.874;2022-12-07T07:09:23;9.52;;;3.85;;
60675;SDS011;46716;38.014;-7.874;2022-12-07T07:11:24;8.98;;;3.60;;
60675;SDS011;46716;38.014;-7.874;2022-12-07T07:13:25;14.40;;;4.70;;
60675;SDS011;46716;38.014;-7.874;2022-12-07T07:15:27;12.43;;;4.22;;
60675;SDS011;46716;38.014;-7.874;2022-12-07T07:17:28;15.18;;;4.18;;
60675;SDS011;46716;38.014;-7.874;2022-12-07T07:19:29;12.98;;;3.85;;
60675;SDS011;46716;38.014;-7.874;2022-12-07T07:21:31;14.02;;;3.47;;
60675;SDS011;46716;38.014;-7.874;2022-12-07T07:23:31;12.75;;;4.32;;
60675;SDS011;46716;38.014;-7.874;2022-12-07T07:25:33;15.60;;;4.25;;
60675;SDS011;46716;38.014;-7.874;2022-12-07T07:27:34;8.80;;;3.25;;
60675;SDS011;46716;38.014;-7.874;2022-12-07T07:29:35;8.00;;;3.40;;
60675;SDS011;46716;38.014;-7.874;2022-12-07T07:31:36;8.18;;;3.55;;
60675;SDS011;46716;38.014;-7.874;2022-12-07T07:33:37;19.15;;;4.22;;
60675;SDS011;46716;38.014;-7.874;2022-12-07T07:35:38;13.18;;;3.42;;
60675;SDS011;46716;38.014;-7.874;2022-12-07T07:37:40;8.32;;;3.63;;
60675;SDS011;46716;38.014;-7.874;2022-12-07T07:39:41;10.93;;;4.13;;
60675;SDS011;46716;38.014;-7.874;2022-12-07T07:41:42;11.27;;;3.63;;
60675;SDS011;46716;38.014;-7.874;2022-12-07T07:43:47;14.18;;;3.95;;
60675;SDS011;46716;38.014;-7.874;2022-12-07T07:45:48;8.13;;;3.35;;
60675;SDS011;46716;38.014;-7.874;2022-12-07T07:47:49;10.90;;;3.75;;
60675;SDS011;46716;38.014;-7.874;2022-12-07T07:49:51;10.27;;;3.45;;
60675;SDS011;46716;38.014;-7.874;2022-12-07T07:51:51;8.93;;;3.65;;
60675;SDS011;46716;38.014;-7.874;2022-12-07T07:53:53;9.40;;;3.22;;
60675;SDS011;46716;38.014;-7.874;2022-12-07T07:55:54;8.00;;;3.42;;
60675;SDS011;46716;38.014;-7.874;2022-12-07T07:57:55;14.18;;;3.90;;
60675;SDS011;46716;38.014;-7.874;2022-12-07T07:59:56;9.93;;;3.35;;
60675;SDS011;46716;38.014;-7.874;2022-12-07T08:01:57;12.27;;;3.55;;
60675;SDS011;46716;38.014;-7.874;2022-12-07T08:03:58;8.63;;;3.22;;
60675;SDS011;46716;38.014;-7.874;2022-12-07T08:05:59;8.30;;;3.35;;
60675;SDS011;46716;38.014;-7.874;2022-12-07T08:08:00;8.80;;;3.03;;
60675;SDS011;46716;38.014;-7.874;2022-12-07T08:10:01;8.40;;;3.00;;
60675;SDS011;46716;38.014;-7.874;2022-12-07T08:12:02;14.25;;;3.78;;
60675;SDS011;46716;38.014;-7.874;2022-12-07T08:14:04;15.47;;;3.73;;
60675;SDS011;46716;38.014;-7.874;2022-12-07T08:16:06;7.93;;;3.45;;
60675;SDS011;46716;38.014;-7.874;2022-12-07T08:18:12;11.43;;;3.90;;
60675;SDS011;46716;38.014;-7.874;2022-12-07T08:20:14;11.05;;;3.65;;
60675;SDS011;46716;38.014;-7.874;2022-12-07T08:22:15;8.88;;;3.30;;
60675;SDS011;46716;38.014;-7.874;2022-12-07T08:24:16;8.43;;;3.67;;
60675;SDS011;46716;38.014;-7.874;2022-12-07T08:26:18;10.43;;;3.25;;
60675;SDS011;46716;38.014;-7.874;2022-12-07T08:28:19;9.48;;;3.83;;
60675;SDS011;46716;38.014;-7.874;2022-12-07T08:30:20;13.52;;;3.50;;
60675;SDS011;46716;38.014;-7.874;2022-12-07T08:32:22;11.45;;;4.28;;
60675;SDS011;46716;38.014;-7.874;2022-12-07T08:34:23;7.47;;;3.20;;
60675;SDS011;46716;38.014;-7.874;2022-12-07T08:36:24;11.60;;;3.40;;
60675;SDS011;46716;38.014;-7.874;2022-12-07T08:38:25;8.43;;;3.17;;
60675;SDS011;46716;38.014;-7.874;2022-12-07T08:40:26;7.78;;;3.28;;
60675;SDS011;46716;38.014;-7.874;2022-12-07T08:42:27;5.63;;;2.75;;
60675;SDS011;46716;38.014;-7.874;2022-12-07T08:44:30;7.32;;;3.40;;
60675;SDS011;46716;38.014;-7.874;2022-12-07T08:46:32;9.02;;;2.92;;
60675;SDS011;46716;38.014;-7.874;2022-12-07T08:48:41;11.15;;;3.47;;
60675;SDS011;46716;38.014;-7.874;2022-12-07T08:50:48;7.45;;;3.25;;
60675;SDS011;46716;38.014;-7.874;2022-12-07T08:52:52;9.40;;;3.17;;
60675;SDS011;46716;38.014;-7.874;2022-12-07T08:54:55;8.50;;;3.13;;
60675;SDS011;46716;38.014;-7.874;2022-12-07T08:56:57;8.05;;;3.40;;
60675;SDS011;46716;38.014;-7.874;2022-12-07T08:58:58;12.52;;;3.00;;
60675;SDS011;46716;38.014;-7.874;2022-12-07T09:00:59;7.13;;;3.08;;
60675;SDS011;46716;38.014;-7.874;2022-12-07T09:03:00;7.65;;;2.92;;
60675;SDS011;46716;38.014;-7.874;2022-12-07T09:05:01;8.73;;;3.40;;
60675;SDS011;46716;38.014;-7.874;2022-12-07T09:07:02;10.70;;;3.33;;
60675;SDS011;46716;38.014;-7.874;2022-12-07T09:09:04;6.97;;;3.35;;
60675;SDS011;46716;38.014;-7.874;2022-12-07T09:11:05;7.93;;;3.75;;
60675;SDS011;46716;38.014;-7.874;2022-12-07T09:13:06;8.25;;;3.10;;
60675;SDS011;46716;38.014;-7.874;2022-12-07T09:15:07;7.13;;;3.20;;
60675;SDS011;46716;38.014;-7.874;2022-12-07T09:17:09;6.70;;;3.30;;
60675;SDS011;46716;38.014;-7.874;2022-12-07T09:19:12;6.40;;;2.92;;
60675;SDS011;46716;38.014;-7.874;2022-12-07T09:21:14;6.70;;;3.20;;
60675;SDS011;46716;38.014;-7.874;2022-12-07T09:23:15;5.82;;;2.45;;
60675;SDS011;46716;38.014;-7.874;2022-12-07T09:25:16;6.38;;;2.90;;
60675;SDS011;46716;38.014;-7.874;2022-12-07T09:27:17;7.28;;;2.72;;
60675;SDS011;46716;38.014;-7.874;2022-12-07T09:29:18;6.47;;;2.97;;
60675;SDS011;46716;38.014;-7.874;2022-12-07T09:31:21;6.25;;;3.17;;
60675;SDS011;46716;38.014;-7.874;2022-12-07T09:33:25;5.88;;;2.97;;
60675;SDS011;46716;38.014;-7.874;2022-12-07T09:35:27;5.93;;;3.10;;
60675;SDS011;46716;38.014;-7.874;2022-12-07T09:37:28;5.78;;;2.88;;
60675;SDS011;46716;38.014;-7.874;2022-12-07T09:39:30;10.00;;;2.80;;
60675;SDS011;46716;38.014;-7.874;2022-12-07T09:41:31;5.82;;;2.88;;
60675;SDS011;46716;38.014;-7.874;2022-12-07T09:43:34;6.55;;;3.00;;
60675;SDS011;46716;38.014;-7.874;2022-12-07T09:45:37;6.72;;;3.05;;
60675;SDS011;46716;38.014;-7.874;2022-12-07T09:47:39;6.40;;;2.60;;
60675;SDS011;46716;38.014;-7.874;2022-12-07T09:49:40;6.70;;;3.10;;
60675;SDS011;46716;38.014;-7.874;2022-12-07T09:51:41;6.88;;;2.90;;
60675;SDS011;46716;38.014;-7.874;2022-12-07T09:53:43;5.18;;;2.75;;
60675;SDS011;46716;38.014;-7.874;2022-12-07T09:57:47;4.93;;;2.55;;
60675;SDS011;46716;38.014;-7.874;2022-12-07T09:59:48;9.25;;;3.17;;
60675;SDS011;46716;38.014;-7.874;2022-12-07T10:01:49;7.13;;;2.83;;
60675;SDS011;46716;38.014;-7.874;2022-12-07T10:03:54;5.88;;;2.35;;
60675;SDS011;46716;38.014;-7.874;2022-12-07T10:05:59;6.05;;;2.42;;
60675;SDS011;46716;38.014;-7.874;2022-12-07T10:08:01;4.97;;;2.35;;
60675;SDS011;46716;38.014;-7.874;2022-12-07T10:10:03;6.18;;;2.72;;
60675;SDS011;46716;38.014;-7.874;2022-12-07T10:12:08;6.70;;;2.30;;
60675;SDS011;46716;38.014;-7.874;2022-12-07T10:14:13;4.90;;;2.30;;
60675;SDS011;46716;38.014;-7.874;2022-12-07T10:20:27;4.88;;;2.42;;
60675;SDS011;46716;38.014;-7.874;2022-12-07T10:22:29;7.90;;;2.83;;
60675;SDS011;46716;38.014;-7.874;2022-12-07T10:24:30;6.65;;;2.55;;
60675;SDS011;46716;38.014;-7.874;2022-12-07T10:26:35;10.55;;;2.50;;
60675;SDS011;46716;38.014;-7.874;2022-12-07T10:28:55;7.93;;;3.08;;
60675;SDS011;46716;38.014;-7.874;2022-12-07T10:31:00;7.05;;;3.00;;
60675;SDS011;46716;38.014;-7.874;2022-12-07T10:33:08;6.97;;;3.03;;
60675;SDS011;46716;38.014;-7.874;2022-12-07T10:35:30;10.48;;;2.88;;
60675;SDS011;46716;38.014;-7.874;2022-12-07T10:37:31;7.35;;;3.05;;
60675;SDS011;46716;38.014;-7.874;2022-12-07T10:42:02;8.35;;;2.85;;
60675;SDS011;46716;38.014;-7.874;2022-12-07T10:44:07;14.15;;;3.92;;
60675;SDS011;46716;38.014;-7.874;2022-12-07T10:46:32;7.13;;;2.63;;
60675;SDS011;46716;38.014;-7.874;2022-12-07T10:51:02;6.10;;;3.13;;
60675;SDS011;46716;38.014;-7.874;2022-12-07T10:59:58;6.50;;;3.38;;
60675;SDS011;46716;38.014;-7.874;2022-12-07T11:02:23;6.55;;;3.25;;
60675;SDS011;46716;38.014;-7.874;2022-12-07T11:07:42;6.20;;;2.83;;
60675;SDS011;46716;38.014;-7.874;2022-12-07T11:16:07;6.47;;;2.85;;
60675;SDS011;46716;38.014;-7.874;2022-12-07T11:20:43;5.60;;;2.80;;
60675;SDS011;46716;38.014;-7.874;2022-12-07T11:25:26;6.07;;;2.53;;
60675;SDS011;46716;38.014;-7.874;2022-12-07T11:27:42;7.28;;;2.75;;
60675;SDS011;46716;38.014;-7.874;2022-12-07T11:34:59;7.32;;;2.75;;
60675;SDS011;46716;38.014;-7.874;2022-12-07T11:37:10;6.38;;;3.00;;
60675;SDS011;46716;38.014;-7.874;2022-12-07T11:45:37;7.28;;;2.85;;
60675;SDS011;46716;38.014;-7.874;2022-12-07T11:49:57;6.82;;;3.20;;
60675;SDS011;46716;38.014;-7.874;2022-12-07T11:52:22;7.63;;;3.75;;
60675;SDS011;46716;38.014;-7.874;2022-12-07T11:54:39;9.35;;;2.92;;
60675;SDS011;46716;38.014;-7.874;2022-12-07T11:56:43;8.43;;;3.88;;
60675;SDS011;46716;38.014;-7.874;2022-12-07T11:58:54;11.07;;;3.88;;
60675;SDS011;46716;38.014;-7.874;2022-12-07T12:03:51;7.10;;;3.35;;
60675;SDS011;46716;38.014;-7.874;2022-12-07T12:06:58;8.15;;;3.80;;
60675;SDS011;46716;38.014;-7.874;2022-12-07T12:24:16;9.25;;;4.13;;
60675;SDS011;46716;38.014;-7.874;2022-12-07T12:26:26;6.60;;;3.10;;
60675;SDS011;46716;38.014;-7.874;2022-12-07T12:28:41;10.05;;;4.00;;
60675;SDS011;46716;38.014;-7.874;2022-12-07T12:31:07;9.27;;;4.22;;
60675;SDS011;46716;38.014;-7.874;2022-12-07T12:33:22;7.88;;;4.10;;
60675;SDS011;46716;38.014;-7.874;2022-12-07T12:39:35;7.55;;;3.80;;
60675;SDS011;46716;38.014;-7.874;2022-12-07T12:48:32;14.52;;;4.38;;
60675;SDS011;46716;38.014;-7.874;2022-12-07T12:50:39;10.90;;;4.88;;
60675;SDS011;46716;38.014;-7.874;2022-12-07T12:55:11;10.07;;;5.10;;
60675;SDS011;46716;38.014;-7.874;2022-12-07T12:59:31;13.50;;;5.70;;
60675;SDS011;46716;38.014;-7.874;2022-12-07T13:01:46;13.27;;;5.55;;
60675;SDS011;46716;38.014;-7.874;2022-12-07T13:03:51;10.38;;;5.03;;
60675;SDS011;46716;38.014;-7.874;2022-12-07T13:08:26;12.07;;;4.63;;
60675;SDS011;46716;38.014;-7.874;2022-12-07T13:10:46;9.88;;;4.88;;
60675;SDS011;46716;38.014;-7.874;2022-12-07T13:15:00;9.23;;;3.88;;
60675;SDS011;46716;38.014;-7.874;2022-12-07T13:19:27;7.70;;;3.70;;
60675;SDS011;46716;38.014;-7.874;2022-12-07T13:21:44;7.82;;;3.10;;
60675;SDS011;46716;38.014;-7.874;2022-12-07T13:26:09;8.07;;;3.20;;
60675;SDS011;46716;38.014;-7.874;2022-12-07T13:28:16;7.30;;;3.17;;
60675;SDS011;46716;38.014;-7.874;2022-12-07T13:30:20;6.88;;;3.35;;
60675;SDS011;46716;38.014;-7.874;2022-12-07T13:32:27;5.93;;;2.92;;
60675;SDS011;46716;38.014;-7.874;2022-12-07T13:35:33;8.23;;;3.60;;
60675;SDS011;46716;38.014;-7.874;2022-12-07T13:41:21;6.53;;;3.55;;
60675;SDS011;46716;38.014;-7.874;2022-12-07T13:43:24;6.90;;;3.40;;
60675;SDS011;46716;38.014;-7.874;2022-12-07T13:45:30;8.75;;;3.25;;
60675;SDS011;46716;38.014;-7.874;2022-12-07T13:47:54;6.95;;;3.30;;
60675;SDS011;46716;38.014;-7.874;2022-12-07T13:49:59;9.73;;;3.45;;
60675;SDS011;46716;38.014;-7.874;2022-12-07T13:52:16;11.95;;;3.70;;
60675;SDS011;46716;38.014;-7.874;2022-12-07T13:54:19;10.35;;;3.35;;
60675;SDS011;46716;38.014;-7.874;2022-12-07T13:56:22;6.75;;;3.00;;
60675;SDS011;46716;38.014;-7.874;2022-12-07T13:58:32;6.88;;;3.30;;
60675;SDS011;46716;38.014;-7.874;2022-12-07T14:00:34;6.10;;;2.70;;
60675;SDS011;46716;38.014;-7.874;2022-12-07T14:02:36;8.77;;;3.00;;
60675;SDS011;46716;38.014;-7.874;2022-12-07T14:04:37;8.07;;;3.53;;
60675;SDS011;46716;38.014;-7.874;2022-12-07T14:06:46;10.38;;;3.28;;
60675;SDS011;46716;38.014;-7.874;2022-12-07T14:09:05;10.38;;;2.92;;
60675;SDS011;46716;38.014;-7.874;2022-12-07T14:11:13;7.03;;;3.15;;
60675;SDS011;46716;38.014;-7.874;2022-12-07T14:15:34;9.60;;;3.45;;
60675;SDS011;46716;38.014;-7.874;2022-12-07T14:17:36;9.80;;;5.13;;
60675;SDS011;46716;38.014;-7.874;2022-12-07T14:19:50;7.82;;;2.90;;
60675;SDS011;46716;38.014;-7.874;2022-12-07T14:22:08;8.23;;;3.10;;
60675;SDS011;46716;38.014;-7.874;2022-12-07T14:24:19;9.63;;;3.90;;